sensor_id;sensor_type;location;lat;lon;timestamp;pressure;altitude;pressure_sealevel;temperature;humidity
64453;BME280;50813;52.654;6.766;2023-02-21T02:14:48;101730.0;;;9.49;100.0
64453;BME280;50813;52.654;6.766;2023-02-21T02:16:34;101733.0;;;9.52;100.0
64453;BME280;50813;52.654;6.766;2023-02-21T02:18:38;101726.0;;;9.53;100.0
64453;BME280;50813;52.654;6.766;2023-02-21T02:22:10;101737.0;;;9.63;100.0
64453;BME280;50813;52.654;6.766;2023-02-21T02:24:29;101742.0;;;9.63;100.0
64453;BME280;50813;52.654;6.766;2023-02-21T02:26:53;101738.0;;;9.57;100.0
64453;BME280;50813;52.654;6.766;2023-02-21T02:36:39;101752.0;;;9.56;100.0
64453;BME280;50813;52.654;6.766;2023-02-21T02:38:23;101753.0;;;9.55;100.0
64453;BME280;50813;52.654;6.766;2023-02-21T02:40:09;101755.0;;;9.58;100.0
64453;BME280;50813;52.654;6.766;2023-02-21T02:41:59;101755.0;;;9.61;100.0
64453;BME280;50813;52.654;6.766;2023-02-21T02:45:29;101752.0;;;9.67;100.0
64453;BME280;50813;52.654;6.766;2023-02-21T02:47:13;101755.0;;;9.61;100.0
64453;BME280;50813;52.654;6.766;2023-02-21T02:48:57;101761.0;;;9.59;100.0
64453;BME280;50813;52.654;6.766;2023-02-21T02:50:38;101755.0;;;9.64;100.0
64453;BME280;50813;52.654;6.766;2023-02-21T02:52:16;101756.0;;;9.68;100.0
64453;BME280;50813;52.654;6.766;2023-02-21T02:55:34;101756.0;;;9.63;100.0
64453;BME280;50813;52.654;6.766;2023-02-21T02:57:12;101753.0;;;9.66;100.0
64453;BME280;50813;52.654;6.766;2023-02-21T02:58:53;101756.0;;;9.66;100.0
64453;BME280;50813;52.654;6.766;2023-02-21T03:02:26;101756.0;;;9.69;100.0
64453;BME280;50813;52.654;6.766;2023-02-21T03:04:51;101757.0;;;9.65;100.0
64453;BME280;50813;52.654;6.766;2023-02-21T03:06:43;101749.0;;;9.71;100.0
64453;BME280;50813;52.654;6.766;2023-02-21T03:08:34;101747.0;;;9.64;100.0
64453;BME280;50813;52.654;6.766;2023-02-21T03:10:20;101752.0;;;9.64;100.0
64453;BME280;50813;52.654;6.766;2023-02-21T03:12:07;101748.0;;;9.61;100.0
64453;BME280;50813;52.654;6.766;2023-02-21T03:13:54;101755.0;;;9.65;100.0
64453;BME280;50813;52.654;6.766;2023-02-21T03:15:38;101755.0;;;9.68;100.0
64453;BME280;50813;52.654;6.766;2023-02-21T03:19:06;101755.0;;;9.67;100.0
64453;BME280;50813;52.654;6.766;2023-02-21T03:20:46;101758.0;;;9.63;100.0
64453;BME280;50813;52.654;6.766;2023-02-21T03:22:30;101760.0;;;9.64;100.0
64453;BME280;50813;52.654;6.766;2023-02-21T03:24:09;101762.0;;;9.64;100.0
64453;BME280;50813;52.654;6.766;2023-02-21T03:25:47;101763.0;;;9.68;100.0
64453;BME280;50813;52.654;6.766;2023-02-21T03:29:05;101762.0;;;9.66;100.0
64453;BME280;50813;52.654;6.766;2023-02-21T03:30:43;101757.0;;;9.71;100.0
64453;BME280;50813;52.654;6.766;2023-02-21T03:35:33;101761.0;;;9.73;100.0
64453;BME280;50813;52.654;6.766;2023-02-21T03:37:18;101761.0;;;9.73;100.0
64453;BME280;50813;52.654;6.766;2023-02-21T03:38:56;101765.0;;;9.71;100.0
64453;BME280;50813;52.654;6.766;2023-02-21T03:40:33;101766.0;;;9.75;100.0
64453;BME280;50813;52.654;6.766;2023-02-21T03:43:45;101762.0;;;9.72;100.0
64453;BME280;50813;52.654;6.766;2023-02-21T03:45:22;101764.0;;;9.71;100.0
64453;BME280;50813;52.654;6.766;2023-02-21T03:46:58;101758.0;;;9.73;100.0
64453;BME280;50813;52.654;6.766;2023-02-21T03:50:11;101763.0;;;9.73;100.0
64453;BME280;50813;52.654;6.766;2023-02-21T03:51:48;101762.0;;;9.71;100.0
64453;BME280;50813;52.654;6.766;2023-02-21T03:53:24;101766.0;;;9.77;100.0
64453;BME280;50813;52.654;6.766;2023-02-21T03:55:01;101773.0;;;9.81;100.0
64453;BME280;50813;52.654;6.766;2023-02-21T03:58:14;101771.0;;;9.75;100.0
64453;BME280;50813;52.654;6.766;2023-02-21T03:59:50;101773.0;;;9.74;100.0
64453;BME280;50813;52.654;6.766;2023-02-21T04:01:27;101770.0;;;9.76;100.0
64453;BME280;50813;52.654;6.766;2023-02-21T04:04:39;101770.0;;;9.8;100.0
64453;BME280;50813;52.654;6.766;2023-02-21T04:06:17;101771.0;;;9.73;100.0
64453;BME280;50813;52.654;6.766;2023-02-21T04:07:53;101772.0;;;9.73;100.0
64453;BME280;50813;52.654;6.766;2023-02-21T04:11:05;101773.0;;;9.73;100.0
64453;BME280;50813;52.654;6.766;2023-02-21T04:12:42;101774.0;;;9.73;100.0
64453;BME280;50813;52.654;6.766;2023-02-21T04:14:18;101780.0;;;9.71;100.0
64453;BME280;50813;52.654;6.766;2023-02-21T04:17:31;101786.0;;;9.67;100.0
64453;BME280;50813;52.654;6.766;2023-02-21T04:19:06;101783.0;;;9.63;100.0
64453;BME280;50813;52.654;6.766;2023-02-21T04:20:45;101777.0;;;9.64;100.0
64453;BME280;50813;52.654;6.766;2023-02-21T04:22:22;101774.0;;;9.66;100.0
64453;BME280;50813;52.654;6.766;2023-02-21T04:25:34;101770.0;;;9.67;100.0
64453;BME280;50813;52.654;6.766;2023-02-21T04:27:12;101776.0;;;9.71;100.0
64453;BME280;50813;52.654;6.766;2023-02-21T04:28:48;101775.0;;;9.65;100.0
64453;BME280;50813;52.654;6.766;2023-02-21T04:32:02;101768.0;;;9.64;100.0
64453;BME280;50813;52.654;6.766;2023-02-21T04:33:38;101768.0;;;9.72;100.0
64453;BME280;50813;52.654;6.766;2023-02-21T04:35:15;101767.0;;;9.73;100.0
64453;BME280;50813;52.654;6.766;2023-02-21T04:36:51;101763.0;;;9.68;100.0
64453;BME280;50813;52.654;6.766;2023-02-21T04:40:04;101766.0;;;9.67;100.0
64453;BME280;50813;52.654;6.766;2023-02-21T04:41:41;101771.0;;;9.72;100.0
64453;BME280;50813;52.654;6.766;2023-02-21T04:43:20;101771.0;;;9.68;100.0
64453;BME280;50813;52.654;6.766;2023-02-21T04:46:32;101769.0;;;9.73;100.0
64453;BME280;50813;52.654;6.766;2023-02-21T04:48:09;101758.0;;;9.66;100.0
64453;BME280;50813;52.654;6.766;2023-02-21T04:49:50;101762.0;;;9.74;100.0
64453;BME280;50813;52.654;6.766;2023-02-21T04:53:03;101761.0;;;9.73;100.0
64453;BME280;50813;52.654;6.766;2023-02-21T04:54:38;101759.0;;;9.72;100.0
64453;BME280;50813;52.654;6.766;2023-02-21T04:56:17;101758.0;;;9.69;100.0
64453;BME280;50813;52.654;6.766;2023-02-21T04:57:54;101755.0;;;9.71;100.0
64453;BME280;50813;52.654;6.766;2023-02-21T05:01:06;101755.0;;;9.73;100.0
64453;BME280;50813;52.654;6.766;2023-02-21T05:02:43;101753.0;;;9.75;100.0
64453;BME280;50813;52.654;6.766;2023-02-21T05:04:19;101755.0;;;9.82;100.0
64453;BME280;50813;52.654;6.766;2023-02-21T05:07:32;101755.0;;;9.78;100.0
64453;BME280;50813;52.654;6.766;2023-02-21T05:09:08;101748.0;;;9.73;100.0
64453;BME280;50813;52.654;6.766;2023-02-21T05:10:45;101758.0;;;9.75;100.0
64453;BME280;50813;52.654;6.766;2023-02-21T05:13:58;101755.0;;;9.77;100.0
64453;BME280;50813;52.654;6.766;2023-02-21T05:15:34;101757.0;;;9.81;100.0
64453;BME280;50813;52.654;6.766;2023-02-21T05:17:10;101758.0;;;9.74;100.0
64453;BME280;50813;52.654;6.766;2023-02-21T05:18:47;101763.0;;;9.74;100.0
64453;BME280;50813;52.654;6.766;2023-02-21T05:22:02;101763.0;;;9.75;100.0
64453;BME280;50813;52.654;6.766;2023-02-21T05:23:39;101761.0;;;9.81;100.0
64453;BME280;50813;52.654;6.766;2023-02-21T05:25:16;101764.0;;;9.73;100.0
64453;BME280;50813;52.654;6.766;2023-02-21T05:28:33;101760.0;;;9.71;100.0
64453;BME280;50813;52.654;6.766;2023-02-21T05:30:10;101758.0;;;9.72;100.0
64453;BME280;50813;52.654;6.766;2023-02-21T05:31:47;101760.0;;;9.61;100.0
64453;BME280;50813;52.654;6.766;2023-02-21T05:33:24;101752.0;;;9.67;100.0
64453;BME280;50813;52.654;6.766;2023-02-21T05:36:38;101755.0;;;9.64;100.0
64453;BME280;50813;52.654;6.766;2023-02-21T05:38:16;101750.0;;;9.59;100.0
64453;BME280;50813;52.654;6.766;2023-02-21T05:39:53;101750.0;;;9.59;100.0
64453;BME280;50813;52.654;6.766;2023-02-21T05:43:06;101755.0;;;9.64;100.0
64453;BME280;50813;52.654;6.766;2023-02-21T05:44:43;101751.0;;;9.64;100.0
64453;BME280;50813;52.654;6.766;2023-02-21T05:46:23;101752.0;;;9.71;100.0
64453;BME280;50813;52.654;6.766;2023-02-21T05:48:01;101752.0;;;9.67;100.0
64453;BME280;50813;52.654;6.766;2023-02-21T05:51:15;101752.0;;;9.67;100.0
64453;BME280;50813;52.654;6.766;2023-02-21T05:52:52;101756.0;;;9.73;100.0
64453;BME280;50813;52.654;6.766;2023-02-21T05:54:28;101752.0;;;9.66;100.0
64453;BME280;50813;52.654;6.766;2023-02-21T05:57:40;101758.0;;;9.65;100.0
64453;BME280;50813;52.654;6.766;2023-02-21T05:59:19;101761.0;;;9.64;100.0
64453;BME280;50813;52.654;6.766;2023-02-21T06:00:56;101751.0;;;9.59;100.0
64453;BME280;50813;52.654;6.766;2023-02-21T06:04:09;101760.0;;;9.58;100.0
64453;BME280;50813;52.654;6.766;2023-02-21T06:05:46;101759.0;;;9.67;100.0
64453;BME280;50813;52.654;6.766;2023-02-21T06:07:22;101757.0;;;9.67;100.0
64453;BME280;50813;52.654;6.766;2023-02-21T06:08:58;101757.0;;;9.63;100.0
64453;BME280;50813;52.654;6.766;2023-02-21T06:12:12;101760.0;;;9.67;100.0
64453;BME280;50813;52.654;6.766;2023-02-21T06:13:49;101756.0;;;9.64;100.0
64453;BME280;50813;52.654;6.766;2023-02-21T06:15:26;101755.0;;;9.64;100.0
64453;BME280;50813;52.654;6.766;2023-02-21T06:18:38;101752.0;;;9.55;100.0
64453;BME280;50813;52.654;6.766;2023-02-21T06:20:16;101752.0;;;9.57;100.0
64453;BME280;50813;52.654;6.766;2023-02-21T06:21:53;101752.0;;;9.71;100.0
64453;BME280;50813;52.654;6.766;2023-02-21T06:25:06;101753.0;;;9.64;100.0
64453;BME280;50813;52.654;6.766;2023-02-21T06:26:44;101755.0;;;9.67;100.0
64453;BME280;50813;52.654;6.766;2023-02-21T06:28:21;101755.0;;;9.68;100.0
64453;BME280;50813;52.654;6.766;2023-02-21T06:29:57;101757.0;;;9.75;100.0
64453;BME280;50813;52.654;6.766;2023-02-21T06:33:09;101755.0;;;9.65;100.0
64453;BME280;50813;52.654;6.766;2023-02-21T06:34:45;101751.0;;;9.65;100.0
64453;BME280;50813;52.654;6.766;2023-02-21T06:36:24;101757.0;;;9.6;100.0
64453;BME280;50813;52.654;6.766;2023-02-21T06:39:38;101756.0;;;9.72;100.0
64453;BME280;50813;52.654;6.766;2023-02-21T06:41:17;101757.0;;;9.64;100.0
64453;BME280;50813;52.654;6.766;2023-02-21T06:42:54;101752.0;;;9.66;100.0
64453;BME280;50813;52.654;6.766;2023-02-21T06:44:30;101753.0;;;9.66;100.0
64453;BME280;50813;52.654;6.766;2023-02-21T06:47:43;101753.0;;;9.6;100.0
64453;BME280;50813;52.654;6.766;2023-02-21T06:49:19;101753.0;;;9.56;100.0
64453;BME280;50813;52.654;6.766;2023-02-21T06:50:55;101756.0;;;9.6;100.0
64453;BME280;50813;52.654;6.766;2023-02-21T06:54:08;101760.0;;;9.55;100.0
64453;BME280;50813;52.654;6.766;2023-02-21T06:55:44;101758.0;;;9.55;100.0
64453;BME280;50813;52.654;6.766;2023-02-21T06:57:21;101758.0;;;9.46;100.0
64453;BME280;50813;52.654;6.766;2023-02-21T07:00:33;101757.0;;;9.5;100.0
64453;BME280;50813;52.654;6.766;2023-02-21T07:02:15;101759.0;;;9.5;100.0
64453;BME280;50813;52.654;6.766;2023-02-21T07:03:53;101758.0;;;9.49;100.0
64453;BME280;50813;52.654;6.766;2023-02-21T07:05:33;101760.0;;;9.56;100.0
64453;BME280;50813;52.654;6.766;2023-02-21T07:08:46;101758.0;;;9.43;100.0
64453;BME280;50813;52.654;6.766;2023-02-21T07:10:22;101765.0;;;9.44;100.0
64453;BME280;50813;52.654;6.766;2023-02-21T07:11:58;101765.0;;;9.33;100.0
64453;BME280;50813;52.654;6.766;2023-02-21T07:15:12;101767.0;;;9.38;100.0
64453;BME280;50813;52.654;6.766;2023-02-21T07:16:49;101766.0;;;9.31;100.0
64453;BME280;50813;52.654;6.766;2023-02-21T07:18:26;101767.0;;;9.34;100.0
64453;BME280;50813;52.654;6.766;2023-02-21T07:20:04;101773.0;;;9.27;100.0
64453;BME280;50813;52.654;6.766;2023-02-21T07:23:16;101768.0;;;9.35;100.0
64453;BME280;50813;52.654;6.766;2023-02-21T07:24:53;101767.0;;;9.32;100.0
64453;BME280;50813;52.654;6.766;2023-02-21T07:26:30;101767.0;;;9.33;100.0
64453;BME280;50813;52.654;6.766;2023-02-21T07:29:44;101765.0;;;9.31;100.0
64453;BME280;50813;52.654;6.766;2023-02-21T07:31:22;101768.0;;;9.31;100.0
64453;BME280;50813;52.654;6.766;2023-02-21T07:32:59;101768.0;;;9.36;100.0
64453;BME280;50813;52.654;6.766;2023-02-21T07:36:11;101774.0;;;9.33;100.0
64453;BME280;50813;52.654;6.766;2023-02-21T07:37:47;101775.0;;;9.35;100.0
64453;BME280;50813;52.654;6.766;2023-02-21T07:39:23;101776.0;;;9.39;100.0
64453;BME280;50813;52.654;6.766;2023-02-21T07:41:01;101780.0;;;9.41;100.0
64453;BME280;50813;52.654;6.766;2023-02-21T07:44:19;101780.0;;;9.49;100.0
64453;BME280;50813;52.654;6.766;2023-02-21T07:45:55;101782.0;;;9.47;100.0
64453;BME280;50813;52.654;6.766;2023-02-21T07:47:32;101782.0;;;9.46;100.0
64453;BME280;50813;52.654;6.766;2023-02-21T07:50:45;101786.0;;;9.4;100.0
64453;BME280;50813;52.654;6.766;2023-02-21T07:52:22;101788.0;;;9.5;100.0
64453;BME280;50813;52.654;6.766;2023-02-21T07:53:58;101790.0;;;9.56;100.0
64453;BME280;50813;52.654;6.766;2023-02-21T07:57:10;101785.0;;;9.52;100.0
64453;BME280;50813;52.654;6.766;2023-02-21T07:58:47;101787.0;;;9.6;100.0
64453;BME280;50813;52.654;6.766;2023-02-21T08:00:24;101788.0;;;9.57;100.0
64453;BME280;50813;52.654;6.766;2023-02-21T08:02:01;101791.0;;;9.6;100.0
64453;BME280;50813;52.654;6.766;2023-02-21T08:05:17;101791.0;;;9.53;100.0
64453;BME280;50813;52.654;6.766;2023-02-21T08:06:57;101791.0;;;9.56;100.0
64453;BME280;50813;52.654;6.766;2023-02-21T08:08:34;101795.0;;;9.67;100.0
64453;BME280;50813;52.654;6.766;2023-02-21T08:11:49;101795.0;;;9.76;100.0
64453;BME280;50813;52.654;6.766;2023-02-21T08:13:25;101801.0;;;9.64;100.0
64453;BME280;50813;52.654;6.766;2023-02-21T08:15:01;101803.0;;;9.68;100.0
64453;BME280;50813;52.654;6.766;2023-02-21T08:16:37;101810.0;;;9.67;100.0
64453;BME280;50813;52.654;6.766;2023-02-21T08:19:57;101803.0;;;9.74;100.0
64453;BME280;50813;52.654;6.766;2023-02-21T08:21:33;101806.0;;;9.65;100.0
64453;BME280;50813;52.654;6.766;2023-02-21T08:23:09;101807.0;;;9.66;100.0
64453;BME280;50813;52.654;6.766;2023-02-21T08:26:24;101807.0;;;9.56;100.0
64453;BME280;50813;52.654;6.766;2023-02-21T08:28:00;101805.0;;;9.56;100.0
64453;BME280;50813;52.654;6.766;2023-02-21T08:29:37;101805.0;;;9.59;100.0
64453;BME280;50813;52.654;6.766;2023-02-21T08:31:13;101805.0;;;9.71;100.0
64453;BME280;50813;52.654;6.766;2023-02-21T08:34:28;101805.0;;;9.73;100.0
64453;BME280;50813;52.654;6.766;2023-02-21T08:36:05;101800.0;;;9.69;100.0
64453;BME280;50813;52.654;6.766;2023-02-21T08:37:44;101800.0;;;9.68;100.0
64453;BME280;50813;52.654;6.766;2023-02-21T08:40:58;101803.0;;;9.81;100.0
64453;BME280;50813;52.654;6.766;2023-02-21T08:42:34;101799.0;;;9.75;100.0
64453;BME280;50813;52.654;6.766;2023-02-21T08:44:13;101803.0;;;9.81;100.0
64453;BME280;50813;52.654;6.766;2023-02-21T08:49:02;101803.0;;;9.84;100.0
64453;BME280;50813;52.654;6.766;2023-02-21T08:50:39;101810.0;;;9.84;100.0
64453;BME280;50813;52.654;6.766;2023-02-21T08:52:17;101807.0;;;9.89;100.0
64453;BME280;50813;52.654;6.766;2023-02-21T08:55:29;101803.0;;;9.88;100.0
64453;BME280;50813;52.654;6.766;2023-02-21T08:57:06;101808.0;;;9.92;100.0
64453;BME280;50813;52.654;6.766;2023-02-21T08:58:42;101803.0;;;9.92;100.0
64453;BME280;50813;52.654;6.766;2023-02-21T09:01:59;101803.0;;;9.88;100.0
64453;BME280;50813;52.654;6.766;2023-02-21T09:03:35;101801.0;;;9.96;100.0
64453;BME280;50813;52.654;6.766;2023-02-21T09:05:15;101802.0;;;9.99;100.0
64453;BME280;50813;52.654;6.766;2023-02-21T09:06:53;101807.0;;;9.92;100.0
64453;BME280;50813;52.654;6.766;2023-02-21T09:10:08;101807.0;;;10.08;100.0
64453;BME280;50813;52.654;6.766;2023-02-21T09:11:47;101806.0;;;10.02;100.0
64453;BME280;50813;52.654;6.766;2023-02-21T09:13:24;101806.0;;;10.06;100.0
64453;BME280;50813;52.654;6.766;2023-02-21T09:16:38;101807.0;;;10.0;100.0
64453;BME280;50813;52.654;6.766;2023-02-21T09:18:15;101807.0;;;9.92;100.0
64453;BME280;50813;52.654;6.766;2023-02-21T09:19:51;101805.0;;;9.96;100.0
64453;BME280;50813;52.654;6.766;2023-02-21T09:21:28;101801.0;;;9.85;100.0
64453;BME280;50813;52.654;6.766;2023-02-21T09:24:41;101805.0;;;9.98;100.0
64453;BME280;50813;52.654;6.766;2023-02-21T09:26:17;101805.0;;;10.02;100.0
64453;BME280;50813;52.654;6.766;2023-02-21T09:27:53;101808.0;;;9.98;100.0
64453;BME280;50813;52.654;6.766;2023-02-21T09:31:08;101808.0;;;9.96;100.0
64453;BME280;50813;52.654;6.766;2023-02-21T09:32:46;101808.0;;;10.08;100.0
64453;BME280;50813;52.654;6.766;2023-02-21T09:34:23;101805.0;;;10.05;100.0
64453;BME280;50813;52.654;6.766;2023-02-21T09:37:37;101806.0;;;10.15;100.0
64453;BME280;50813;52.654;6.766;2023-02-21T09:39:14;101803.0;;;10.23;100.0
64453;BME280;50813;52.654;6.766;2023-02-21T09:40:55;101803.0;;;10.11;100.0
64453;BME280;50813;52.654;6.766;2023-02-21T09:42:35;101802.0;;;10.18;100.0
64453;BME280;50813;52.654;6.766;2023-02-21T09:45:57;101802.0;;;10.09;100.0
64453;BME280;50813;52.654;6.766;2023-02-21T09:47:37;101802.0;;;10.15;100.0
64453;BME280;50813;52.654;6.766;2023-02-21T09:49:19;101805.0;;;10.14;100.0
64453;BME280;50813;52.654;6.766;2023-02-21T09:51:02;101802.0;;;10.16;100.0
64453;BME280;50813;52.654;6.766;2023-02-21T09:54:23;101798.0;;;10.21;100.0
64453;BME280;50813;52.654;6.766;2023-02-21T09:56:04;101805.0;;;10.07;100.0
64453;BME280;50813;52.654;6.766;2023-02-21T09:57:42;101802.0;;;10.19;100.0
64453;BME280;50813;52.654;6.766;2023-02-21T09:59:18;101798.0;;;10.09;100.0
64453;BME280;50813;52.654;6.766;2023-02-21T10:02:42;101798.0;;;10.25;100.0
64453;BME280;50813;52.654;6.766;2023-02-21T10:04:37;101801.0;;;10.27;100.0
64453;BME280;50813;52.654;6.766;2023-02-21T10:06:31;101800.0;;;10.34;100.0
64453;BME280;50813;52.654;6.766;2023-02-21T10:08:23;101798.0;;;10.34;100.0
64453;BME280;50813;52.654;6.766;2023-02-21T10:11:55;101795.0;;;10.35;100.0
64453;BME280;50813;52.654;6.766;2023-02-21T10:15:35;101798.0;;;10.5;100.0
64453;BME280;50813;52.654;6.766;2023-02-21T10:17:19;101800.0;;;10.4;100.0
64453;BME280;50813;52.654;6.766;2023-02-21T10:19:03;101805.0;;;10.44;100.0
64453;BME280;50813;52.654;6.766;2023-02-21T10:20:47;101805.0;;;10.34;100.0
64453;BME280;50813;52.654;6.766;2023-02-21T10:22:27;101805.0;;;10.33;100.0
64453;BME280;50813;52.654;6.766;2023-02-21T10:25:53;101810.0;;;10.41;100.0
64453;BME280;50813;52.654;6.766;2023-02-21T10:27:32;101811.0;;;10.46;100.0
64453;BME280;50813;52.654;6.766;2023-02-21T10:29:19;101811.0;;;10.53;100.0
64453;BME280;50813;52.654;6.766;2023-02-21T10:30:59;101811.0;;;10.48;100.0
64453;BME280;50813;52.654;6.766;2023-02-21T10:32:36;101816.0;;;10.56;100.0
64453;BME280;50813;52.654;6.766;2023-02-21T10:35:58;101815.0;;;10.53;100.0
64453;BME280;50813;52.654;6.766;2023-02-21T10:37:38;101814.0;;;10.59;100.0
64453;BME280;50813;52.654;6.766;2023-02-21T10:39:18;101815.0;;;10.58;100.0
64453;BME280;50813;52.654;6.766;2023-02-21T10:40:58;101823.0;;;10.53;100.0
64453;BME280;50813;52.654;6.766;2023-02-21T10:44:27;101818.0;;;10.57;100.0
64453;BME280;50813;52.654;6.766;2023-02-21T10:46:10;101816.0;;;10.58;100.0
64453;BME280;50813;52.654;6.766;2023-02-21T10:47:57;101818.0;;;10.63;100.0
64453;BME280;50813;52.654;6.766;2023-02-21T10:49:42;101817.0;;;10.64;100.0
64453;BME280;50813;52.654;6.766;2023-02-21T10:51:28;101823.0;;;10.57;100.0
64453;BME280;50813;52.654;6.766;2023-02-21T10:55:00;101818.0;;;10.62;100.0
64453;BME280;50813;52.654;6.766;2023-02-21T10:56:37;101816.0;;;10.6;100.0
64453;BME280;50813;52.654;6.766;2023-02-21T10:58:25;101811.0;;;10.6;100.0
64453;BME280;50813;52.654;6.766;2023-02-21T11:00:19;101810.0;;;10.57;100.0
64453;BME280;50813;52.654;6.766;2023-02-21T11:02:00;101812.0;;;10.57;100.0
64453;BME280;50813;52.654;6.766;2023-02-21T11:05:21;101816.0;;;10.57;100.0
64453;BME280;50813;52.654;6.766;2023-02-21T11:07:00;101810.0;;;10.5;100.0
64453;BME280;50813;52.654;6.766;2023-02-21T11:08:41;101815.0;;;10.62;100.0
64453;BME280;50813;52.654;6.766;2023-02-21T11:10:35;101815.0;;;10.66;100.0
64453;BME280;50813;52.654;6.766;2023-02-21T11:14:06;101816.0;;;10.51;100.0
64453;BME280;50813;52.654;6.766;2023-02-21T11:16:08;101811.0;;;10.59;100.0
64453;BME280;50813;52.654;6.766;2023-02-21T11:18:01;101812.0;;;10.66;100.0
64453;BME280;50813;52.654;6.766;2023-02-21T11:19:47;101809.0;;;10.7;100.0
64453;BME280;50813;52.654;6.766;2023-02-21T11:21:26;101809.0;;;10.75;100.0
64453;BME280;50813;52.654;6.766;2023-02-21T11:23:17;101806.0;;;10.7;100.0
64453;BME280;50813;52.654;6.766;2023-02-21T11:24:58;101814.0;;;10.81;100.0
64453;BME280;50813;52.654;6.766;2023-02-21T11:28:22;101814.0;;;10.81;100.0
64453;BME280;50813;52.654;6.766;2023-02-21T11:30:08;101813.0;;;10.81;100.0
64453;BME280;50813;52.654;6.766;2023-02-21T11:31:49;101813.0;;;10.85;100.0
64453;BME280;50813;52.654;6.766;2023-02-21T11:33:25;101813.0;;;10.72;100.0
64453;BME280;50813;52.654;6.766;2023-02-21T11:37:02;101817.0;;;10.85;100.0
64453;BME280;50813;52.654;6.766;2023-02-21T11:38:43;101815.0;;;10.97;100.0
64453;BME280;50813;52.654;6.766;2023-02-21T11:40:26;101813.0;;;10.91;100.0
64453;BME280;50813;52.654;6.766;2023-02-21T11:42:25;101815.0;;;10.98;100.0
64453;BME280;50813;52.654;6.766;2023-02-21T11:44:01;101811.0;;;10.94;100.0
64453;BME280;50813;52.654;6.766;2023-02-21T11:46:03;101811.0;;;10.99;100.0
64453;BME280;50813;52.654;6.766;2023-02-21T11:48:00;101807.0;;;10.9;100.0
64453;BME280;50813;52.654;6.766;2023-02-21T11:51:33;101806.0;;;10.85;100.0
64453;BME280;50813;52.654;6.766;2023-02-21T11:53:19;101805.0;;;10.91;100.0
64453;BME280;50813;52.654;6.766;2023-02-21T11:54:57;101805.0;;;10.94;100.0
64453;BME280;50813;52.654;6.766;2023-02-21T11:56:43;101805.0;;;11.01;100.0
64453;BME280;50813;52.654;6.766;2023-02-21T11:58:25;101801.0;;;10.91;100.0
64453;BME280;50813;52.654;6.766;2023-02-21T12:02:18;101798.0;;;10.88;100.0
64453;BME280;50813;52.654;6.766;2023-02-21T12:04:29;101799.0;;;10.93;100.0
64453;BME280;50813;52.654;6.766;2023-02-21T12:06:19;101794.0;;;10.96;100.0
64453;BME280;50813;52.654;6.766;2023-02-21T12:08:15;101794.0;;;11.0;100.0
64453;BME280;50813;52.654;6.766;2023-02-21T12:10:10;101793.0;;;11.06;100.0
64453;BME280;50813;52.654;6.766;2023-02-21T12:12:16;101791.0;;;10.96;100.0
64453;BME280;50813;52.654;6.766;2023-02-21T12:14:09;101791.0;;;10.86;100.0
64453;BME280;50813;52.654;6.766;2023-02-21T12:16:02;101790.0;;;10.7;100.0
64453;BME280;50813;52.654;6.766;2023-02-21T12:17:53;101791.0;;;10.78;100.0
64453;BME280;50813;52.654;6.766;2023-02-21T12:20:05;101790.0;;;10.85;100.0
64453;BME280;50813;52.654;6.766;2023-02-21T12:23:18;101790.0;;;10.85;100.0
64453;BME280;50813;52.654;6.766;2023-02-21T12:25:07;101794.0;;;10.84;100.0
64453;BME280;50813;52.654;6.766;2023-02-21T12:26:56;101791.0;;;10.94;100.0
64453;BME280;50813;52.654;6.766;2023-02-21T12:28:50;101792.0;;;10.92;100.0
64453;BME280;50813;52.654;6.766;2023-02-21T12:30:47;101790.0;;;10.85;100.0
64453;BME280;50813;52.654;6.766;2023-02-21T12:32:49;101792.0;;;10.88;100.0
64453;BME280;50813;52.654;6.766;2023-02-21T12:34:48;101792.0;;;10.85;100.0
64453;BME280;50813;52.654;6.766;2023-02-21T12:36:50;101790.0;;;10.8;100.0
64453;BME280;50813;52.654;6.766;2023-02-21T12:39:37;101787.0;;;10.9;100.0
64453;BME280;50813;52.654;6.766;2023-02-21T12:41:35;101791.0;;;10.76;100.0
64453;BME280;50813;52.654;6.766;2023-02-21T12:44:48;101790.0;;;10.89;100.0
64453;BME280;50813;52.654;6.766;2023-02-21T12:46:36;101782.0;;;10.75;100.0
64453;BME280;50813;52.654;6.766;2023-02-21T12:50:06;101788.0;;;10.81;100.0
64453;BME280;50813;52.654;6.766;2023-02-21T12:51:53;101783.0;;;10.89;100.0
64453;BME280;50813;52.654;6.766;2023-02-21T12:53:36;101786.0;;;10.93;100.0
64453;BME280;50813;52.654;6.766;2023-02-21T12:55:25;101781.0;;;10.86;100.0
64453;BME280;50813;52.654;6.766;2023-02-21T12:57:06;101778.0;;;10.85;100.0
64453;BME280;50813;52.654;6.766;2023-02-21T13:00:33;101776.0;;;10.94;100.0
64453;BME280;50813;52.654;6.766;2023-02-21T13:02:18;101774.0;;;10.97;100.0
64453;BME280;50813;52.654;6.766;2023-02-21T13:04:08;101771.0;;;10.97;100.0
64453;BME280;50813;52.654;6.766;2023-02-21T13:05:53;101773.0;;;10.96;100.0
64453;BME280;50813;52.654;6.766;2023-02-21T13:07:35;101770.0;;;11.08;100.0
64453;BME280;50813;52.654;6.766;2023-02-21T13:11:09;101771.0;;;10.91;100.0
64453;BME280;50813;52.654;6.766;2023-02-21T13:12:54;101769.0;;;10.99;100.0
64453;BME280;50813;52.654;6.766;2023-02-21T13:14:39;101766.0;;;11.0;100.0
64453;BME280;50813;52.654;6.766;2023-02-21T13:16:18;101762.0;;;10.89;100.0
64453;BME280;50813;52.654;6.766;2023-02-21T13:17:58;101761.0;;;10.94;100.0
64453;BME280;50813;52.654;6.766;2023-02-21T13:21:30;101761.0;;;10.98;100.0
64453;BME280;50813;52.654;6.766;2023-02-21T13:24:41;101761.0;;;10.94;100.0
64453;BME280;50813;52.654;6.766;2023-02-21T13:26:42;101756.0;;;10.83;100.0
64453;BME280;50813;52.654;6.766;2023-02-21T13:29:22;101755.0;;;10.94;100.0
64453;BME280;50813;52.654;6.766;2023-02-21T13:31:02;101747.0;;;10.73;100.0
64453;BME280;50813;52.654;6.766;2023-02-21T13:32:49;101741.0;;;10.75;100.0
64453;BME280;50813;52.654;6.766;2023-02-21T13:36:21;101745.0;;;10.76;100.0
64453;BME280;50813;52.654;6.766;2023-02-21T13:38:08;101743.0;;;10.66;100.0
64453;BME280;50813;52.654;6.766;2023-02-21T13:39:49;101734.0;;;10.6;100.0
64453;BME280;50813;52.654;6.766;2023-02-21T13:41:32;101734.0;;;10.54;100.0
64453;BME280;50813;52.654;6.766;2023-02-21T13:43:17;101728.0;;;10.49;100.0